Terminal Aerodrome Forecast
Issued by NWS Boise, ID

Home | Current Version | Previous Version | Text Only | Print | Product List | Glossary On
Versions: 1 2 3 4 5 6 7 8 9 10 11 12 13 14 15 16 17 18 19 20 21 22 23 24 25 26 27 28 29
000
FTUS45 KBOI 270520
TAFBNO
TAF
KBNO 270520Z 2706/2806 04005KT P6SM SKC
     FM271500 17007KT P6SM FEW250
     FM272100 24010G15KT P6SM FEW100 SCT250
     FM280200 24007KT P6SM SCT100 OVC200=

USA.gov is the U.S. government's official web portal to all federal, state and local government web resources and services.